sensor_id;sensor_type;location;lat;lon;timestamp;temperature;humidity
5850;DHT22;2951;47.712;9.400;2023-05-10T00:00:40;13.80;99.90
5850;DHT22;2951;47.712;9.400;2023-05-10T00:03:07;13.80;99.90
5850;DHT22;2951;47.712;9.400;2023-05-10T00:05:34;13.70;99.90
5850;DHT22;2951;47.712;9.400;2023-05-10T00:08:01;13.60;99.90
5850;DHT22;2951;47.712;9.400;2023-05-10T00:10:27;13.60;99.90
5850;DHT22;2951;47.712;9.400;2023-05-10T00:12:54;13.60;99.90
5850;DHT22;2951;47.712;9.400;2023-05-10T00:15:21;13.50;99.90
5850;DHT22;2951;47.712;9.400;2023-05-10T00:17:47;13.50;99.90
5850;DHT22;2951;47.712;9.400;2023-05-10T00:20:14;13.50;99.90
5850;DHT22;2951;47.712;9.400;2023-05-10T00:22:41;13.50;99.90
5850;DHT22;2951;47.712;9.400;2023-05-10T00:25:08;13.40;99.90
5850;DHT22;2951;47.712;9.400;2023-05-10T00:27:35;13.40;99.90
5850;DHT22;2951;47.712;9.400;2023-05-10T00:30:02;13.40;99.90
5850;DHT22;2951;47.712;9.400;2023-05-10T00:32:28;13.50;99.90
5850;DHT22;2951;47.712;9.400;2023-05-10T00:34:55;13.40;99.90
5850;DHT22;2951;47.712;9.400;2023-05-10T00:37:22;13.40;99.90
5850;DHT22;2951;47.712;9.400;2023-05-10T00:39:49;13.30;99.90
5850;DHT22;2951;47.712;9.400;2023-05-10T00:42:15;13.40;99.90
5850;DHT22;2951;47.712;9.400;2023-05-10T00:44:42;13.30;99.90
5850;DHT22;2951;47.712;9.400;2023-05-10T00:47:09;13.30;99.90
5850;DHT22;2951;47.712;9.400;2023-05-10T00:49:36;13.40;99.90
5850;DHT22;2951;47.712;9.400;2023-05-10T00:52:03;13.40;99.90
5850;DHT22;2951;47.712;9.400;2023-05-10T00:54:30;13.40;99.90
5850;DHT22;2951;47.712;9.400;2023-05-10T00:56:56;13.30;99.90
5850;DHT22;2951;47.712;9.400;2023-05-10T00:59:23;13.30;99.90
5850;DHT22;2951;47.712;9.400;2023-05-10T01:01:50;13.30;99.90
5850;DHT22;2951;47.712;9.400;2023-05-10T01:04:18;13.30;99.90
5850;DHT22;2951;47.712;9.400;2023-05-10T01:06:46;13.30;99.90
5850;DHT22;2951;47.712;9.400;2023-05-10T01:09:13;13.40;99.90
5850;DHT22;2951;47.712;9.400;2023-05-10T01:11:39;13.30;99.90
5850;DHT22;2951;47.712;9.400;2023-05-10T01:14:06;13.20;99.90
5850;DHT22;2951;47.712;9.400;2023-05-10T01:16:36;13.20;99.90
5850;DHT22;2951;47.712;9.400;2023-05-10T01:19:08;13.30;99.90
5850;DHT22;2951;47.712;9.400;2023-05-10T01:27:13;13.20;99.90
5850;DHT22;2951;47.712;9.400;2023-05-10T01:35:13;13.20;99.90
5850;DHT22;2951;47.712;9.400;2023-05-10T01:40:39;13.20;99.90
5850;DHT22;2951;47.712;9.400;2023-05-10T01:43:10;13.10;99.90
5850;DHT22;2951;47.712;9.400;2023-05-10T01:48:16;13.10;99.90
5850;DHT22;2951;47.712;9.400;2023-05-10T01:50:45;13.10;99.90
5850;DHT22;2951;47.712;9.400;2023-05-10T01:53:12;13.10;99.90
5850;DHT22;2951;47.712;9.400;2023-05-10T01:55:44;13.00;99.90
5850;DHT22;2951;47.712;9.400;2023-05-10T01:58:13;13.10;99.90
5850;DHT22;2951;47.712;9.400;2023-05-10T02:00:42;13.00;99.90
5850;DHT22;2951;47.712;9.400;2023-05-10T02:03:10;13.00;99.90
5850;DHT22;2951;47.712;9.400;2023-05-10T02:05:38;13.00;99.90
5850;DHT22;2951;47.712;9.400;2023-05-10T02:08:05;13.00;99.90
5850;DHT22;2951;47.712;9.400;2023-05-10T02:10:34;12.90;99.90
5850;DHT22;2951;47.712;9.400;2023-05-10T02:13:01;12.90;99.90
5850;DHT22;2951;47.712;9.400;2023-05-10T02:15:29;12.90;99.90
5850;DHT22;2951;47.712;9.400;2023-05-10T02:17:56;12.90;99.90
5850;DHT22;2951;47.712;9.400;2023-05-10T02:20:23;12.90;99.90
5850;DHT22;2951;47.712;9.400;2023-05-10T02:22:51;12.90;99.90
5850;DHT22;2951;47.712;9.400;2023-05-10T02:25:19;12.90;99.90
5850;DHT22;2951;47.712;9.400;2023-05-10T02:27:46;12.90;99.90
5850;DHT22;2951;47.712;9.400;2023-05-10T02:30:13;12.90;99.90
5850;DHT22;2951;47.712;9.400;2023-05-10T02:32:40;13.00;99.90
5850;DHT22;2951;47.712;9.400;2023-05-10T02:35:08;12.90;99.90
5850;DHT22;2951;47.712;9.400;2023-05-10T02:37:36;12.80;99.90
5850;DHT22;2951;47.712;9.400;2023-05-10T02:40:03;12.80;99.90
5850;DHT22;2951;47.712;9.400;2023-05-10T02:42:32;12.80;99.90
5850;DHT22;2951;47.712;9.400;2023-05-10T02:44:59;12.70;99.90
5850;DHT22;2951;47.712;9.400;2023-05-10T02:47:27;12.70;99.90
5850;DHT22;2951;47.712;9.400;2023-05-10T02:49:54;12.70;99.90
5850;DHT22;2951;47.712;9.400;2023-05-10T02:52:23;12.60;99.90
5850;DHT22;2951;47.712;9.400;2023-05-10T02:54:52;12.70;99.90
5850;DHT22;2951;47.712;9.400;2023-05-10T02:57:31;12.60;99.90
5850;DHT22;2951;47.712;9.400;2023-05-10T02:59:59;12.60;99.90
5850;DHT22;2951;47.712;9.400;2023-05-10T03:02:26;12.70;99.90
5850;DHT22;2951;47.712;9.400;2023-05-10T03:04:53;12.70;99.90
5850;DHT22;2951;47.712;9.400;2023-05-10T03:07:20;12.70;99.90
5850;DHT22;2951;47.712;9.400;2023-05-10T03:09:48;12.80;99.90
5850;DHT22;2951;47.712;9.400;2023-05-10T03:12:39;12.70;99.90
5850;DHT22;2951;47.712;9.400;2023-05-10T03:20:29;12.70;99.90
5850;DHT22;2951;47.712;9.400;2023-05-10T03:23:00;12.60;99.90
5850;DHT22;2951;47.712;9.400;2023-05-10T03:25:29;12.60;99.90
5850;DHT22;2951;47.712;9.400;2023-05-10T03:27:56;12.60;99.90
5850;DHT22;2951;47.712;9.400;2023-05-10T03:30:23;12.50;99.90
5850;DHT22;2951;47.712;9.400;2023-05-10T03:32:51;12.60;99.90
5850;DHT22;2951;47.712;9.400;2023-05-10T03:35:18;12.60;99.90
5850;DHT22;2951;47.712;9.400;2023-05-10T03:37:45;12.60;99.90
5850;DHT22;2951;47.712;9.400;2023-05-10T03:40:11;12.60;99.90
5850;DHT22;2951;47.712;9.400;2023-05-10T03:42:38;12.60;99.90
5850;DHT22;2951;47.712;9.400;2023-05-10T03:45:05;12.60;99.90
5850;DHT22;2951;47.712;9.400;2023-05-10T03:47:32;12.60;99.90
5850;DHT22;2951;47.712;9.400;2023-05-10T03:49:59;12.50;99.90
5850;DHT22;2951;47.712;9.400;2023-05-10T03:52:25;12.50;99.90
5850;DHT22;2951;47.712;9.400;2023-05-10T03:54:52;12.60;99.90
5850;DHT22;2951;47.712;9.400;2023-05-10T03:57:19;12.50;99.90
5850;DHT22;2951;47.712;9.400;2023-05-10T03:59:45;12.60;99.90
5850;DHT22;2951;47.712;9.400;2023-05-10T04:02:12;12.50;99.90
5850;DHT22;2951;47.712;9.400;2023-05-10T04:04:39;12.60;99.90
5850;DHT22;2951;47.712;9.400;2023-05-10T04:07:05;12.60;99.90
5850;DHT22;2951;47.712;9.400;2023-05-10T04:09:32;12.60;99.90
5850;DHT22;2951;47.712;9.400;2023-05-10T04:11:59;12.60;99.90
5850;DHT22;2951;47.712;9.400;2023-05-10T04:14:26;12.70;99.90
5850;DHT22;2951;47.712;9.400;2023-05-10T04:16:53;12.70;99.90
5850;DHT22;2951;47.712;9.400;2023-05-10T04:19:20;12.60;99.90
5850;DHT22;2951;47.712;9.400;2023-05-10T04:21:46;12.60;99.90
5850;DHT22;2951;47.712;9.400;2023-05-10T04:24:13;12.70;99.90
5850;DHT22;2951;47.712;9.400;2023-05-10T04:26:40;12.70;99.90
5850;DHT22;2951;47.712;9.400;2023-05-10T04:29:06;12.70;99.90
5850;DHT22;2951;47.712;9.400;2023-05-10T04:31:33;12.80;99.90
5850;DHT22;2951;47.712;9.400;2023-05-10T04:34:00;12.70;99.90
5850;DHT22;2951;47.712;9.400;2023-05-10T04:36:27;12.70;99.90
5850;DHT22;2951;47.712;9.400;2023-05-10T04:38:54;12.80;99.90
5850;DHT22;2951;47.712;9.400;2023-05-10T04:41:20;12.80;99.90
5850;DHT22;2951;47.712;9.400;2023-05-10T04:43:47;12.80;99.90
5850;DHT22;2951;47.712;9.400;2023-05-10T04:46:16;12.80;99.90
5850;DHT22;2951;47.712;9.400;2023-05-10T04:48:43;12.80;99.90
5850;DHT22;2951;47.712;9.400;2023-05-10T04:51:09;12.90;99.90
5850;DHT22;2951;47.712;9.400;2023-05-10T04:53:36;12.90;99.90
5850;DHT22;2951;47.712;9.400;2023-05-10T04:56:03;13.00;99.90
5850;DHT22;2951;47.712;9.400;2023-05-10T04:58:30;13.00;99.90
5850;DHT22;2951;47.712;9.400;2023-05-10T05:00:56;12.90;99.90
5850;DHT22;2951;47.712;9.400;2023-05-10T05:03:23;13.00;99.90
5850;DHT22;2951;47.712;9.400;2023-05-10T05:05:50;13.00;99.90
5850;DHT22;2951;47.712;9.400;2023-05-10T05:08:16;13.00;99.90
5850;DHT22;2951;47.712;9.400;2023-05-10T05:10:43;13.10;99.90
5850;DHT22;2951;47.712;9.400;2023-05-10T05:13:10;13.00;99.90
5850;DHT22;2951;47.712;9.400;2023-05-10T05:15:38;13.10;99.90
5850;DHT22;2951;47.712;9.400;2023-05-10T05:18:05;13.10;99.90
5850;DHT22;2951;47.712;9.400;2023-05-10T05:20:32;13.20;99.90
5850;DHT22;2951;47.712;9.400;2023-05-10T05:23:00;13.30;99.90
5850;DHT22;2951;47.712;9.400;2023-05-10T05:25:26;13.30;99.90
5850;DHT22;2951;47.712;9.400;2023-05-10T05:27:53;13.30;99.90
5850;DHT22;2951;47.712;9.400;2023-05-10T05:30:20;13.30;99.90
5850;DHT22;2951;47.712;9.400;2023-05-10T05:32:46;13.30;99.90
5850;DHT22;2951;47.712;9.400;2023-05-10T05:35:13;13.30;99.90
5850;DHT22;2951;47.712;9.400;2023-05-10T05:37:40;13.40;99.90
5850;DHT22;2951;47.712;9.400;2023-05-10T05:40:07;13.40;99.90
5850;DHT22;2951;47.712;9.400;2023-05-10T05:42:34;13.30;99.90
5850;DHT22;2951;47.712;9.400;2023-05-10T05:45:01;13.40;99.90
5850;DHT22;2951;47.712;9.400;2023-05-10T05:47:27;13.30;99.90
5850;DHT22;2951;47.712;9.400;2023-05-10T05:49:54;13.30;99.90
5850;DHT22;2951;47.712;9.400;2023-05-10T05:52:21;13.40;99.90
5850;DHT22;2951;47.712;9.400;2023-05-10T05:54:48;13.30;99.90
5850;DHT22;2951;47.712;9.400;2023-05-10T05:57:14;13.40;99.90
5850;DHT22;2951;47.712;9.400;2023-05-10T05:59:41;13.30;99.90
5850;DHT22;2951;47.712;9.400;2023-05-10T06:02:10;13.30;99.90
5850;DHT22;2951;47.712;9.400;2023-05-10T06:04:37;13.30;99.90
5850;DHT22;2951;47.712;9.400;2023-05-10T06:07:04;13.20;99.90
5850;DHT22;2951;47.712;9.400;2023-05-10T06:09:31;13.30;99.90
5850;DHT22;2951;47.712;9.400;2023-05-10T06:11:57;13.30;99.90
5850;DHT22;2951;47.712;9.400;2023-05-10T06:14:24;13.30;99.90
5850;DHT22;2951;47.712;9.400;2023-05-10T06:16:51;13.30;99.90
5850;DHT22;2951;47.712;9.400;2023-05-10T06:19:18;13.20;99.90
5850;DHT22;2951;47.712;9.400;2023-05-10T06:21:44;13.20;99.90
5850;DHT22;2951;47.712;9.400;2023-05-10T06:24:11;13.20;99.90
5850;DHT22;2951;47.712;9.400;2023-05-10T06:26:37;13.10;99.90
5850;DHT22;2951;47.712;9.400;2023-05-10T06:29:04;13.10;99.90
5850;DHT22;2951;47.712;9.400;2023-05-10T06:31:31;13.20;99.90
5850;DHT22;2951;47.712;9.400;2023-05-10T06:33:58;13.30;99.90
5850;DHT22;2951;47.712;9.400;2023-05-10T06:36:25;13.20;99.90
5850;DHT22;2951;47.712;9.400;2023-05-10T06:38:53;13.30;99.90
5850;DHT22;2951;47.712;9.400;2023-05-10T06:41:19;13.30;99.90
5850;DHT22;2951;47.712;9.400;2023-05-10T06:43:49;13.30;99.90
5850;DHT22;2951;47.712;9.400;2023-05-10T06:46:16;13.30;99.90
5850;DHT22;2951;47.712;9.400;2023-05-10T06:48:43;13.30;99.90
5850;DHT22;2951;47.712;9.400;2023-05-10T06:51:09;13.40;99.90
5850;DHT22;2951;47.712;9.400;2023-05-10T06:53:36;13.30;99.90
5850;DHT22;2951;47.712;9.400;2023-05-10T06:56:03;13.40;99.90
5850;DHT22;2951;47.712;9.400;2023-05-10T06:58:30;13.50;99.90
5850;DHT22;2951;47.712;9.400;2023-05-10T07:01:01;13.40;99.90
5850;DHT22;2951;47.712;9.400;2023-05-10T07:03:28;13.40;99.90
5850;DHT22;2951;47.712;9.400;2023-05-10T07:05:59;13.50;99.90
5850;DHT22;2951;47.712;9.400;2023-05-10T07:08:26;13.50;99.90
5850;DHT22;2951;47.712;9.400;2023-05-10T07:10:52;13.40;99.90
5850;DHT22;2951;47.712;9.400;2023-05-10T07:13:19;13.50;99.90
5850;DHT22;2951;47.712;9.400;2023-05-10T07:15:46;13.40;99.90
5850;DHT22;2951;47.712;9.400;2023-05-10T07:18:12;13.50;99.90
5850;DHT22;2951;47.712;9.400;2023-05-10T07:20:39;13.60;99.90
5850;DHT22;2951;47.712;9.400;2023-05-10T07:23:06;13.50;99.90
5850;DHT22;2951;47.712;9.400;2023-05-10T07:25:32;13.50;99.90
5850;DHT22;2951;47.712;9.400;2023-05-10T07:27:59;13.50;99.90
5850;DHT22;2951;47.712;9.400;2023-05-10T07:30:26;13.50;99.90
5850;DHT22;2951;47.712;9.400;2023-05-10T07:32:54;13.40;99.90
5850;DHT22;2951;47.712;9.400;2023-05-10T07:35:20;13.40;99.90
5850;DHT22;2951;47.712;9.400;2023-05-10T07:37:47;13.40;99.90
5850;DHT22;2951;47.712;9.400;2023-05-10T07:40:14;13.50;99.90
5850;DHT22;2951;47.712;9.400;2023-05-10T07:42:40;13.50;99.90
5850;DHT22;2951;47.712;9.400;2023-05-10T07:45:07;13.60;99.90
5850;DHT22;2951;47.712;9.400;2023-05-10T07:47:34;13.60;99.90
5850;DHT22;2951;47.712;9.400;2023-05-10T07:50:01;13.70;99.90
5850;DHT22;2951;47.712;9.400;2023-05-10T07:52:28;13.60;99.90
5850;DHT22;2951;47.712;9.400;2023-05-10T07:54:54;13.60;99.90
5850;DHT22;2951;47.712;9.400;2023-05-10T07:57:23;13.60;99.90
5850;DHT22;2951;47.712;9.400;2023-05-10T07:59:49;13.60;99.90
5850;DHT22;2951;47.712;9.400;2023-05-10T08:02:16;13.80;99.90
5850;DHT22;2951;47.712;9.400;2023-05-10T08:04:43;13.90;99.90
5850;DHT22;2951;47.712;9.400;2023-05-10T08:07:09;13.90;99.90
5850;DHT22;2951;47.712;9.400;2023-05-10T08:09:37;14.00;99.90
5850;DHT22;2951;47.712;9.400;2023-05-10T08:12:03;14.20;99.90
5850;DHT22;2951;47.712;9.400;2023-05-10T08:14:30;14.20;99.90
5850;DHT22;2951;47.712;9.400;2023-05-10T08:16:57;14.20;99.90
5850;DHT22;2951;47.712;9.400;2023-05-10T08:19:24;14.20;99.90
5850;DHT22;2951;47.712;9.400;2023-05-10T08:21:50;14.20;99.90
5850;DHT22;2951;47.712;9.400;2023-05-10T08:24:17;14.30;99.90
5850;DHT22;2951;47.712;9.400;2023-05-10T08:26:44;14.20;99.90
5850;DHT22;2951;47.712;9.400;2023-05-10T08:29:10;14.30;99.90
5850;DHT22;2951;47.712;9.400;2023-05-10T08:31:37;14.40;99.90
5850;DHT22;2951;47.712;9.400;2023-05-10T08:34:04;14.30;99.90
5850;DHT22;2951;47.712;9.400;2023-05-10T08:36:30;14.10;99.90
5850;DHT22;2951;47.712;9.400;2023-05-10T08:38:58;14.20;99.90
5850;DHT22;2951;47.712;9.400;2023-05-10T08:41:25;14.20;99.90
5850;DHT22;2951;47.712;9.400;2023-05-10T08:43:54;14.40;99.90
5850;DHT22;2951;47.712;9.400;2023-05-10T08:46:21;14.60;99.90
5850;DHT22;2951;47.712;9.400;2023-05-10T08:48:49;14.50;99.90
5850;DHT22;2951;47.712;9.400;2023-05-10T08:51:17;14.70;99.90
5850;DHT22;2951;47.712;9.400;2023-05-10T08:53:44;14.80;99.90
5850;DHT22;2951;47.712;9.400;2023-05-10T08:56:11;15.00;99.90
5850;DHT22;2951;47.712;9.400;2023-05-10T08:58:38;15.00;99.90
5850;DHT22;2951;47.712;9.400;2023-05-10T09:01:05;14.80;99.90
5850;DHT22;2951;47.712;9.400;2023-05-10T09:03:32;14.60;99.90
5850;DHT22;2951;47.712;9.400;2023-05-10T09:05:58;14.70;99.90
5850;DHT22;2951;47.712;9.400;2023-05-10T09:08:25;14.70;99.90
5850;DHT22;2951;47.712;9.400;2023-05-10T09:10:53;14.80;99.90
5850;DHT22;2951;47.712;9.400;2023-05-10T09:13:21;14.70;99.90
5850;DHT22;2951;47.712;9.400;2023-05-10T09:15:48;14.70;99.90
5850;DHT22;2951;47.712;9.400;2023-05-10T09:18:14;14.60;99.90
5850;DHT22;2951;47.712;9.400;2023-05-10T09:20:41;14.70;99.90
5850;DHT22;2951;47.712;9.400;2023-05-10T09:23:08;14.70;99.90
5850;DHT22;2951;47.712;9.400;2023-05-10T09:25:35;14.70;99.90
5850;DHT22;2951;47.712;9.400;2023-05-10T09:28:05;14.80;99.90
5850;DHT22;2951;47.712;9.400;2023-05-10T09:30:32;15.20;99.90
5850;DHT22;2951;47.712;9.400;2023-05-10T09:32:59;14.90;99.90
5850;DHT22;2951;47.712;9.400;2023-05-10T09:35:27;14.80;99.90
5850;DHT22;2951;47.712;9.400;2023-05-10T09:37:56;14.80;99.90
5850;DHT22;2951;47.712;9.400;2023-05-10T09:40:24;14.80;99.90
5850;DHT22;2951;47.712;9.400;2023-05-10T09:43:01;14.90;99.90
5850;DHT22;2951;47.712;9.400;2023-05-10T09:45:29;14.90;99.90
5850;DHT22;2951;47.712;9.400;2023-05-10T09:47:56;15.10;99.90
5850;DHT22;2951;47.712;9.400;2023-05-10T09:50:24;15.10;99.90
5850;DHT22;2951;47.712;9.400;2023-05-10T09:52:57;15.10;99.90
5850;DHT22;2951;47.712;9.400;2023-05-10T09:58:02;15.30;99.90
5850;DHT22;2951;47.712;9.400;2023-05-10T10:00:34;15.30;99.90
5850;DHT22;2951;47.712;9.400;2023-05-10T10:03:01;15.00;99.90
5850;DHT22;2951;47.712;9.400;2023-05-10T10:05:28;15.10;99.90
5850;DHT22;2951;47.712;9.400;2023-05-10T10:07:55;15.00;99.90
5850;DHT22;2951;47.712;9.400;2023-05-10T10:10:26;14.80;99.90
5850;DHT22;2951;47.712;9.400;2023-05-10T10:12:54;14.90;99.90
5850;DHT22;2951;47.712;9.400;2023-05-10T10:15:21;15.20;99.90
5850;DHT22;2951;47.712;9.400;2023-05-10T10:17:49;15.40;99.90
5850;DHT22;2951;47.712;9.400;2023-05-10T10:20:16;15.60;99.90
5850;DHT22;2951;47.712;9.400;2023-05-10T10:22:43;15.30;99.90
5850;DHT22;2951;47.712;9.400;2023-05-10T10:25:11;15.10;99.90
5850;DHT22;2951;47.712;9.400;2023-05-10T10:35:20;15.10;99.90
5850;DHT22;2951;47.712;9.400;2023-05-10T10:37:47;15.10;99.90
5850;DHT22;2951;47.712;9.400;2023-05-10T10:40:23;15.00;99.90
5850;DHT22;2951;47.712;9.400;2023-05-10T10:42:50;15.10;99.90
5850;DHT22;2951;47.712;9.400;2023-05-10T10:45:16;15.20;99.90
5850;DHT22;2951;47.712;9.400;2023-05-10T10:47:44;15.30;99.90
5850;DHT22;2951;47.712;9.400;2023-05-10T10:50:11;15.20;99.90
5850;DHT22;2951;47.712;9.400;2023-05-10T10:52:42;15.30;99.90
5850;DHT22;2951;47.712;9.400;2023-05-10T10:55:13;15.40;99.90
5850;DHT22;2951;47.712;9.400;2023-05-10T11:00:18;15.70;99.90
5850;DHT22;2951;47.712;9.400;2023-05-10T11:02:45;15.70;99.90
5850;DHT22;2951;47.712;9.400;2023-05-10T11:05:34;15.90;99.90
5850;DHT22;2951;47.712;9.400;2023-05-10T11:10:34;16.10;99.90
5850;DHT22;2951;47.712;9.400;2023-05-10T11:13:05;16.00;99.90
5850;DHT22;2951;47.712;9.400;2023-05-10T11:15:36;16.00;99.90
5850;DHT22;2951;47.712;9.400;2023-05-10T11:18:19;16.00;99.90
5850;DHT22;2951;47.712;9.400;2023-05-10T11:20:50;16.10;99.90
5850;DHT22;2951;47.712;9.400;2023-05-10T11:23:17;16.20;99.90
5850;DHT22;2951;47.712;9.400;2023-05-10T11:25:45;16.10;99.90
5850;DHT22;2951;47.712;9.400;2023-05-10T11:28:12;16.20;99.90
5850;DHT22;2951;47.712;9.400;2023-05-10T11:30:39;16.30;99.90
5850;DHT22;2951;47.712;9.400;2023-05-10T11:33:07;16.20;99.90
5850;DHT22;2951;47.712;9.400;2023-05-10T11:35:39;16.20;99.90
5850;DHT22;2951;47.712;9.400;2023-05-10T11:38:09;16.50;99.90
5850;DHT22;2951;47.712;9.400;2023-05-10T11:40:36;16.30;99.90
5850;DHT22;2951;47.712;9.400;2023-05-10T11:43:04;16.40;99.90
5850;DHT22;2951;47.712;9.400;2023-05-10T11:45:34;16.40;99.90
5850;DHT22;2951;47.712;9.400;2023-05-10T11:48:01;16.30;99.90
5850;DHT22;2951;47.712;9.400;2023-05-10T11:50:29;16.30;99.90
5850;DHT22;2951;47.712;9.400;2023-05-10T11:52:56;16.20;99.90
5850;DHT22;2951;47.712;9.400;2023-05-10T11:55:23;16.40;99.90
5850;DHT22;2951;47.712;9.400;2023-05-10T11:57:53;16.10;99.90
5850;DHT22;2951;47.712;9.400;2023-05-10T12:00:20;16.10;99.90
5850;DHT22;2951;47.712;9.400;2023-05-10T12:02:47;15.80;99.90
5850;DHT22;2951;47.712;9.400;2023-05-10T12:05:14;15.70;99.90
5850;DHT22;2951;47.712;9.400;2023-05-10T12:07:41;15.70;99.90
5850;DHT22;2951;47.712;9.400;2023-05-10T12:10:09;15.80;99.90
5850;DHT22;2951;47.712;9.400;2023-05-10T12:12:46;15.90;99.90
5850;DHT22;2951;47.712;9.400;2023-05-10T12:15:18;16.00;99.90
5850;DHT22;2951;47.712;9.400;2023-05-10T12:17:46;16.10;99.90
5850;DHT22;2951;47.712;9.400;2023-05-10T12:20:14;16.30;99.90
5850;DHT22;2951;47.712;9.400;2023-05-10T12:22:45;16.00;99.90
5850;DHT22;2951;47.712;9.400;2023-05-10T12:25:12;16.30;99.90
5850;DHT22;2951;47.712;9.400;2023-05-10T12:27:38;16.20;99.90
5850;DHT22;2951;47.712;9.400;2023-05-10T12:30:05;16.30;99.90
5850;DHT22;2951;47.712;9.400;2023-05-10T12:32:41;16.10;99.90
5850;DHT22;2951;47.712;9.400;2023-05-10T12:35:08;16.00;99.90
5850;DHT22;2951;47.712;9.400;2023-05-10T12:37:35;16.30;99.90
5850;DHT22;2951;47.712;9.400;2023-05-10T12:40:06;16.30;99.90
5850;DHT22;2951;47.712;9.400;2023-05-10T12:42:33;16.10;99.90
5850;DHT22;2951;47.712;9.400;2023-05-10T12:45:00;15.90;99.90
5850;DHT22;2951;47.712;9.400;2023-05-10T12:47:27;16.10;99.90
5850;DHT22;2951;47.712;9.400;2023-05-10T12:49:54;16.00;99.90
5850;DHT22;2951;47.712;9.400;2023-05-10T12:52:20;16.10;99.90
5850;DHT22;2951;47.712;9.400;2023-05-10T12:54:47;16.10;99.90
5850;DHT22;2951;47.712;9.400;2023-05-10T12:57:14;16.20;99.90
5850;DHT22;2951;47.712;9.400;2023-05-10T12:59:40;16.20;99.90
5850;DHT22;2951;47.712;9.400;2023-05-10T13:02:08;16.30;99.90
5850;DHT22;2951;47.712;9.400;2023-05-10T13:04:34;16.50;99.90
5850;DHT22;2951;47.712;9.400;2023-05-10T13:07:09;16.50;99.90
5850;DHT22;2951;47.712;9.400;2023-05-10T13:09:35;16.40;99.90
5850;DHT22;2951;47.712;9.400;2023-05-10T13:12:02;16.20;99.90
5850;DHT22;2951;47.712;9.400;2023-05-10T13:14:29;16.30;99.90
5850;DHT22;2951;47.712;9.400;2023-05-10T13:16:56;16.20;99.90
5850;DHT22;2951;47.712;9.400;2023-05-10T13:19:23;16.40;99.90
5850;DHT22;2951;47.712;9.400;2023-05-10T13:21:50;16.60;99.90
5850;DHT22;2951;47.712;9.400;2023-05-10T13:24:16;16.80;99.90
5850;DHT22;2951;47.712;9.400;2023-05-10T13:26:43;16.90;99.90
5850;DHT22;2951;47.712;9.400;2023-05-10T13:29:10;16.60;99.90
5850;DHT22;2951;47.712;9.400;2023-05-10T13:31:37;16.50;99.90
5850;DHT22;2951;47.712;9.400;2023-05-10T13:34:04;16.40;99.90
5850;DHT22;2951;47.712;9.400;2023-05-10T13:36:31;16.30;99.90
5850;DHT22;2951;47.712;9.400;2023-05-10T13:38:58;16.20;99.90
5850;DHT22;2951;47.712;9.400;2023-05-10T13:41:25;16.30;99.90
5850;DHT22;2951;47.712;9.400;2023-05-10T13:43:52;16.30;99.90
5850;DHT22;2951;47.712;9.400;2023-05-10T13:46:19;16.40;99.90
5850;DHT22;2951;47.712;9.400;2023-05-10T13:48:45;16.30;99.90
5850;DHT22;2951;47.712;9.400;2023-05-10T13:51:12;16.50;99.90
5850;DHT22;2951;47.712;9.400;2023-05-10T13:53:39;16.60;99.90
5850;DHT22;2951;47.712;9.400;2023-05-10T13:56:05;16.70;99.90
5850;DHT22;2951;47.712;9.400;2023-05-10T13:58:32;16.80;99.90
5850;DHT22;2951;47.712;9.400;2023-05-10T14:00:59;16.80;99.90
5850;DHT22;2951;47.712;9.400;2023-05-10T14:03:26;17.10;99.90
5850;DHT22;2951;47.712;9.400;2023-05-10T14:05:52;17.00;99.90
5850;DHT22;2951;47.712;9.400;2023-05-10T14:08:19;16.80;99.90
5850;DHT22;2951;47.712;9.400;2023-05-10T14:10:46;16.70;99.90
5850;DHT22;2951;47.712;9.400;2023-05-10T14:13:13;16.90;99.90
5850;DHT22;2951;47.712;9.400;2023-05-10T14:15:40;16.70;99.90
5850;DHT22;2951;47.712;9.400;2023-05-10T14:18:06;16.50;99.90
5850;DHT22;2951;47.712;9.400;2023-05-10T14:20:33;16.40;99.90
5850;DHT22;2951;47.712;9.400;2023-05-10T14:23:00;16.60;99.90
5850;DHT22;2951;47.712;9.400;2023-05-10T14:25:26;16.60;99.90
5850;DHT22;2951;47.712;9.400;2023-05-10T14:27:54;16.50;99.90
5850;DHT22;2951;47.712;9.400;2023-05-10T14:30:21;16.80;99.90
5850;DHT22;2951;47.712;9.400;2023-05-10T14:32:47;16.90;99.90
5850;DHT22;2951;47.712;9.400;2023-05-10T14:35:14;16.70;99.90
5850;DHT22;2951;47.712;9.400;2023-05-10T14:37:43;16.70;99.90
5850;DHT22;2951;47.712;9.400;2023-05-10T14:40:10;16.50;99.90
5850;DHT22;2951;47.712;9.400;2023-05-10T14:42:38;16.10;99.90
5850;DHT22;2951;47.712;9.400;2023-05-10T14:45:05;16.20;99.90
5850;DHT22;2951;47.712;9.400;2023-05-10T14:47:32;16.20;99.90
5850;DHT22;2951;47.712;9.400;2023-05-10T14:49:58;16.40;99.90
5850;DHT22;2951;47.712;9.400;2023-05-10T14:52:25;16.30;99.90
5850;DHT22;2951;47.712;9.400;2023-05-10T14:54:52;16.20;99.90
5850;DHT22;2951;47.712;9.400;2023-05-10T14:57:19;16.00;99.90
5850;DHT22;2951;47.712;9.400;2023-05-10T14:59:45;16.00;99.90
5850;DHT22;2951;47.712;9.400;2023-05-10T15:02:12;15.90;99.90
5850;DHT22;2951;47.712;9.400;2023-05-10T15:04:39;15.90;99.90
5850;DHT22;2951;47.712;9.400;2023-05-10T15:07:05;15.90;99.90
5850;DHT22;2951;47.712;9.400;2023-05-10T15:09:32;16.00;99.90
5850;DHT22;2951;47.712;9.400;2023-05-10T15:11:58;16.00;99.90
5850;DHT22;2951;47.712;9.400;2023-05-10T15:14:25;16.10;99.90
5850;DHT22;2951;47.712;9.400;2023-05-10T15:16:52;16.10;99.90
5850;DHT22;2951;47.712;9.400;2023-05-10T15:19:19;16.10;99.90
5850;DHT22;2951;47.712;9.400;2023-05-10T15:21:46;16.30;99.90
5850;DHT22;2951;47.712;9.400;2023-05-10T15:24:13;16.20;99.90
5850;DHT22;2951;47.712;9.400;2023-05-10T15:26:40;16.10;99.90
5850;DHT22;2951;47.712;9.400;2023-05-10T15:29:07;16.10;99.90
5850;DHT22;2951;47.712;9.400;2023-05-10T15:31:34;16.30;99.90
5850;DHT22;2951;47.712;9.400;2023-05-10T15:34:02;16.20;99.90
5850;DHT22;2951;47.712;9.400;2023-05-10T15:36:29;16.00;99.90
5850;DHT22;2951;47.712;9.400;2023-05-10T15:38:56;15.70;99.90
5850;DHT22;2951;47.712;9.400;2023-05-10T15:41:22;15.50;99.90
5850;DHT22;2951;47.712;9.400;2023-05-10T15:43:50;15.30;99.90
5850;DHT22;2951;47.712;9.400;2023-05-10T15:46:16;15.20;99.90
5850;DHT22;2951;47.712;9.400;2023-05-10T15:48:43;15.30;99.90
5850;DHT22;2951;47.712;9.400;2023-05-10T15:51:10;15.30;99.90
5850;DHT22;2951;47.712;9.400;2023-05-10T15:53:36;15.30;99.90
5850;DHT22;2951;47.712;9.400;2023-05-10T15:56:03;15.10;99.90
5850;DHT22;2951;47.712;9.400;2023-05-10T15:58:30;15.10;99.90
5850;DHT22;2951;47.712;9.400;2023-05-10T16:00:57;15.10;99.90
5850;DHT22;2951;47.712;9.400;2023-05-10T16:03:23;15.10;99.90
5850;DHT22;2951;47.712;9.400;2023-05-10T16:05:50;15.00;99.90
5850;DHT22;2951;47.712;9.400;2023-05-10T16:08:17;15.10;99.90
5850;DHT22;2951;47.712;9.400;2023-05-10T16:10:43;15.00;99.90
5850;DHT22;2951;47.712;9.400;2023-05-10T16:13:10;15.00;99.90
5850;DHT22;2951;47.712;9.400;2023-05-10T16:15:37;15.00;99.90
5850;DHT22;2951;47.712;9.400;2023-05-10T16:18:04;15.00;99.90
5850;DHT22;2951;47.712;9.400;2023-05-10T16:20:31;14.90;99.90
5850;DHT22;2951;47.712;9.400;2023-05-10T16:23:02;15.00;99.90
5850;DHT22;2951;47.712;9.400;2023-05-10T16:25:30;14.90;99.90
5850;DHT22;2951;47.712;9.400;2023-05-10T16:27:57;14.90;99.90
5850;DHT22;2951;47.712;9.400;2023-05-10T16:30:24;15.00;99.90
5850;DHT22;2951;47.712;9.400;2023-05-10T16:32:52;15.00;99.90
5850;DHT22;2951;47.712;9.400;2023-05-10T16:35:19;14.90;99.90
5850;DHT22;2951;47.712;9.400;2023-05-10T16:37:48;15.00;99.90
5850;DHT22;2951;47.712;9.400;2023-05-10T16:40:16;14.90;99.90